Terminal Aerodrome Forecast
Issued by NWS

Home | Current Version | Previous Version | Text Only | Print | Product List | Glossary On
Versions: 1 2 3 4 5 6 7 8 9 10 11 12 13 14 15 16 17 18 19 20 21
000
FTUS44 KBMX 192141 AAC
TAFMGM
TAF AMD
KMGM 192141Z 1922/2018 20010G18KT P6SM SCT025 BKN040
     FM192230 24012G20KT P6SM SCT050 BKN150
     FM200100 23007KT P6SM SCT040
     FM200900 21008KT 3SM BR SCT007 OVC015
     FM201300 25013G20KT 6SM SHRA BR BKN025=

USA.gov is the U.S. government's official web portal to all federal, state and local government web resources and services.